Time;durP1;ratioP1;P1;durP2;ratioP2;P2;SDS_P1;SDS_P2;PMS_P1;PMS_P2;Temp;Humidity;BMP_temperature;BMP_pressure;BME280_temperature;BME280_humidity;BME280_pressure;Samples;Min_cycle;Max_cycle;Signal;HPM_P1;HPM_P2
2023/12/19 00:00:13;;;;;;;18.87;13.00;;;;;;;-1.43;100.00;100500.88;5097969;28;20184;-81
2023/12/19 00:02:40;;;;;;;17.80;12.70;;;;;;;-1.48;100.00;100487.25;5062679;28;20188;-81
2023/12/19 00:05:10;;;;;;;20.97;13.40;;;;;;;-1.50;100.00;100493.63;5094271;28;20188;-81
2023/12/19 00:07:37;;;;;;;17.77;13.17;;;;;;;-1.55;100.00;100491.34;5099812;28;20188;-81
2023/12/19 00:10:04;;;;;;;19.80;14.90;;;;;;;-1.60;100.00;100498.75;5099035;28;20188;-81
2023/12/19 00:12:31;;;;;;;21.60;15.93;;;;;;;-1.58;100.00;100507.34;5082905;28;20271;-81
2023/12/19 00:14:58;;;;;;;23.47;15.20;;;;;;;-1.60;100.00;100504.00;5101383;28;20184;-81
2023/12/19 00:17:25;;;;;;;19.63;14.67;;;;;;;-1.60;100.00;100498.75;5100001;28;20208;-81
2023/12/19 00:19:52;;;;;;;20.20;14.77;;;;;;;-1.59;100.00;100504.84;5100861;28;20184;-81
2023/12/19 00:22:19;;;;;;;19.63;14.73;;;;;;;-1.55;100.00;100501.88;5111843;28;20207;-81
2023/12/19 00:24:45;;;;;;;20.63;15.27;;;;;;;-1.52;100.00;100517.38;5119925;28;20679;-81
2023/12/19 00:27:12;;;;;;;22.50;14.93;;;;;;;-1.52;100.00;100513.91;5120961;28;20187;-81
2023/12/19 00:29:39;;;;;;;22.50;14.73;;;;;;;-1.57;100.00;100516.06;5121585;28;20184;-81
2023/12/19 00:32:06;;;;;;;21.10;14.90;;;;;;;-1.60;100.00;100513.69;5120134;28;20183;-81
2023/12/19 00:34:33;;;;;;;21.63;14.70;;;;;;;-1.65;100.00;100521.94;5120242;28;20207;-81
2023/12/19 00:37:00;;;;;;;22.27;15.57;;;;;;;-1.64;100.00;100517.50;5120150;28;20687;-81
2023/12/19 00:39:30;;;;;;;17.40;14.57;;;;;;;-1.69;100.00;100517.03;5120461;28;20237;-81
2023/12/19 00:41:57;;;;;;;21.80;14.97;;;;;;;-1.71;100.00;100526.81;5107375;28;20180;-82
2023/12/19 00:44:24;;;;;;;23.10;15.00;;;;;;;-1.74;100.00;100527.06;5102000;28;20188;-80
2023/12/19 00:46:51;;;;;;;19.27;14.10;;;;;;;-1.81;100.00;100510.94;5100375;28;20192;-81
2023/12/19 00:49:18;;;;;;;22.40;17.03;;;;;;;-1.79;100.00;100514.28;5101986;28;20228;-81
2023/12/19 00:51:45;;;;;;;20.10;15.90;;;;;;;-1.77;100.00;100519.44;5100816;28;20204;-81
2023/12/19 00:54:12;;;;;;;22.30;16.23;;;;;;;-1.85;100.00;100522.63;5104225;28;20184;-82
2023/12/19 00:56:42;;;;;;;20.37;15.43;;;;;;;-1.88;100.00;100510.59;5100698;28;20767;-81
2023/12/19 00:59:09;;;;;;;20.60;16.17;;;;;;;-1.90;100.00;100512.50;5084554;28;20177;-81
2023/12/19 01:01:35;;;;;;;19.73;15.43;;;;;;;-1.87;100.00;100506.19;5100744;28;20196;-80
2023/12/19 01:04:04;;;;;;;18.37;14.07;;;;;;;-1.82;100.00;100509.28;5102472;28;20186;-81
2023/12/19 01:06:31;;;;;;;21.23;13.10;;;;;;;-1.83;100.00;100503.19;5101836;28;20245;-81
2023/12/19 01:08:58;;;;;;;19.57;14.10;;;;;;;-1.80;100.00;100507.34;5101686;28;20210;-81
2023/12/19 01:11:25;;;;;;;23.87;16.83;;;;;;;-1.80;100.00;100497.69;5101395;28;20242;-81
2023/12/19 01:13:52;;;;;;;24.57;17.60;;;;;;;-1.76;100.00;100500.91;5099748;28;20196;-81
2023/12/19 01:16:19;;;;;;;24.47;17.30;;;;;;;-1.79;100.00;100498.53;5065063;28;20272;-81
2023/12/19 01:18:46;;;;;;;22.57;16.13;;;;;;;-1.82;100.00;100501.41;5082543;28;20268;-81
2023/12/19 01:21:13;;;;;;;19.43;15.13;;;;;;;-1.86;100.00;100511.28;5080732;28;20252;-81
2023/12/19 01:23:40;;;;;;;19.97;15.10;;;;;;;-1.92;100.00;100503.91;5065065;28;20679;-81
2023/12/19 01:26:07;;;;;;;18.10;14.37;;;;;;;-1.97;100.00;100500.81;5088039;28;20711;-80
2023/12/19 01:28:45;;;;;;;18.30;13.97;;;;;;;-1.95;100.00;100505.91;5101221;28;20180;-81
2023/12/19 01:31:12;;;;;;;18.03;13.50;;;;;;;-1.98;100.00;100495.66;5100474;28;20277;-80
2023/12/19 01:33:39;;;;;;;17.27;13.10;;;;;;;-1.95;100.00;100498.03;5099150;28;20192;-81
2023/12/19 01:36:06;;;;;;;15.43;12.63;;;;;;;-1.94;100.00;100476.91;5082708;28;20214;-80
2023/12/19 01:38:33;;;;;;;17.27;13.60;;;;;;;-1.97;100.00;100478.94;5100083;28;20200;-81
2023/12/19 01:41:00;;;;;;;16.67;12.33;;;;;;;-2.02;100.00;100484.56;5099961;28;20180;-81
2023/12/19 01:43:27;;;;;;;15.30;12.20;;;;;;;-2.05;100.00;100482.16;5099204;28;20200;-81
2023/12/19 01:45:54;;;;;;;16.47;12.37;;;;;;;-2.07;100.00;100489.31;5099907;28;20275;-81
2023/12/19 01:48:23;;;;;;;14.00;11.70;;;;;;;-2.12;100.00;100483.59;5104259;28;20220;-80
2023/12/19 01:50:50;;;;;;;14.20;11.73;;;;;;;-2.13;100.00;100491.56;5102904;28;20177;-81
2023/12/19 01:53:18;;;;;;;14.87;11.47;;;;;;;-2.15;100.00;100486.47;5103740;28;20196;-81
2023/12/19 01:55:45;;;;;;;14.70;11.57;;;;;;;-2.17;100.00;100477.84;5103763;28;20184;-81
2023/12/19 01:58:13;;;;;;;14.40;11.70;;;;;;;-2.14;100.00;100477.63;5102605;28;20208;-81
2023/12/19 02:00:39;;;;;;;12.80;10.90;;;;;;;-2.13;100.00;100471.41;5101834;28;20233;-81
2023/12/19 02:03:06;;;;;;;13.23;10.67;;;;;;;-2.13;100.00;100474.03;5102370;28;20184;-81
2023/12/19 02:05:37;;;;;;;14.23;11.20;;;;;;;-2.11;100.00;100481.81;5102266;28;20215;-81
2023/12/19 02:08:05;;;;;;;13.60;10.77;;;;;;;-2.16;100.00;100476.06;5102736;28;20252;-81
2023/12/19 02:10:32;;;;;;;12.00;10.30;;;;;;;-2.18;100.00;100472.72;5101921;28;20188;-81
2023/12/19 02:12:59;;;;;;;12.67;10.50;;;;;;;-2.16;100.00;100473.44;5103149;28;20188;-81
2023/12/19 02:15:26;;;;;;;12.03;10.43;;;;;;;-2.16;100.00;100466.41;5102524;28;20192;-81
2023/12/19 02:17:53;;;;;;;11.63;9.87;;;;;;;-2.15;100.00;100459.38;5101344;28;20207;-81
2023/12/19 02:20:20;;;;;;;10.77;9.23;;;;;;;-2.16;100.00;100458.53;5102322;28;20184;-81
2023/12/19 02:22:52;;;;;;;12.27;9.47;;;;;;;-2.17;100.00;100451.59;5102949;28;20237;-80
2023/12/19 02:25:20;;;;;;;10.27;8.67;;;;;;;-2.16;100.00;100449.81;5102504;28;20165;-81
2023/12/19 02:27:47;;;;;;;11.30;9.07;;;;;;;-2.13;100.00;100441.69;5100753;28;20180;-81
2023/12/19 02:30:14;;;;;;;11.00;8.33;;;;;;;-2.08;100.00;100445.63;5101225;28;20200;-80
2023/12/19 02:32:42;;;;;;;11.17;8.97;;;;;;;-2.07;100.00;100435.97;5103436;28;20191;-81
2023/12/19 02:35:09;;;;;;;10.93;8.23;;;;;;;-2.02;100.00;100439.06;5102698;28;20214;-80
2023/12/19 02:37:36;;;;;;;10.70;8.70;;;;;;;-1.97;100.00;100437.78;5102840;28;20212;-81
2023/12/19 02:40:03;;;;;;;11.17;9.20;;;;;;;-1.96;100.00;100447.28;5102264;28;20188;-81
2023/12/19 02:42:30;;;;;;;11.37;9.17;;;;;;;-1.97;100.00;100434.31;5104035;28;20202;-81
2023/12/19 02:44:58;;;;;;;13.30;10.00;;;;;;;-1.91;100.00;100426.75;5103548;28;20188;-81
2023/12/19 02:47:25;;;;;;;12.87;9.90;;;;;;;-1.88;100.00;100420.44;5102766;28;20202;-81
2023/12/19 02:49:52;;;;;;;12.93;10.17;;;;;;;-1.88;100.00;100420.44;5103597;28;20628;-81
2023/12/19 02:52:18;;;;;;;11.13;8.90;;;;;;;-1.85;100.00;100430.69;5103665;28;20192;-81
2023/12/19 02:54:45;;;;;;;13.93;9.80;;;;;;;-1.86;100.00;100421.16;5103980;28;20181;-81
2023/12/19 02:57:12;;;;;;;12.47;9.77;;;;;;;-1.75;100.00;100415.88;5102778;28;20200;-79
2023/12/19 02:59:39;;;;;;;11.07;9.47;;;;;;;-1.71;100.00;100411.22;5102499;28;20184;-81
2023/12/19 03:02:06;;;;;;;12.93;9.13;;;;;;;-1.64;100.00;100413.25;5102878;28;20276;-80
2023/12/19 03:04:32;;;;;;;12.30;9.53;;;;;;;-1.60;100.00;100411.22;5103239;28;20188;-81
2023/12/19 03:06:59;;;;;;;11.83;9.73;;;;;;;-1.51;100.00;100410.47;5102116;28;20191;-81
2023/12/19 03:09:26;;;;;;;11.80;9.37;;;;;;;-1.45;100.00;100410.81;5102283;28;20192;-81
2023/12/19 03:11:59;;;;;;;10.53;9.43;;;;;;;-1.36;100.00;100417.13;5102668;28;20180;-81
2023/12/19 03:14:26;;;;;;;11.70;10.13;;;;;;;-1.30;100.00;100426.28;5102991;28;20188;-81
2023/12/19 03:16:53;;;;;;;13.60;10.53;;;;;;;-1.31;100.00;100428.09;5084485;28;20180;-81
2023/12/19 03:19:20;;;;;;;12.60;10.10;;;;;;;-1.34;100.00;100429.16;5102387;28;20219;-81
2023/12/19 03:21:47;;;;;;;11.23;8.90;;;;;;;-1.37;100.00;100425.94;5102260;28;20212;-81
2023/12/19 03:24:14;;;;;;;11.03;9.47;;;;;;;-1.38;100.00;100421.66;5102682;28;20249;-81
2023/12/19 03:26:41;;;;;;;10.63;9.07;;;;;;;-1.37;100.00;100426.78;5084217;28;20184;-81
2023/12/19 03:29:08;;;;;;;10.17;8.50;;;;;;;-1.37;100.00;100411.03;5102670;28;20188;-81
2023/12/19 03:31:36;;;;;;;11.00;8.77;;;;;;;-1.35;100.00;100406.44;5102915;28;20667;-81
2023/12/19 03:34:04;;;;;;;10.53;9.00;;;;;;;-1.42;100.00;100409.72;5102481;28;20208;-81
2023/12/19 03:36:31;;;;;;;10.93;8.70;;;;;;;-1.51;100.00;100407.84;5102851;28;20230;-81
2023/12/19 03:38:58;;;;;;;12.80;8.73;;;;;;;-1.56;100.00;100426.59;5102967;28;20204;-81
2023/12/19 03:41:24;;;;;;;9.67;8.13;;;;;;;-1.64;100.00;100434.28;5102050;28;20187;-81
2023/12/19 03:43:51;;;;;;;11.47;8.47;;;;;;;-1.68;100.00;100437.25;5102489;28;20185;-81
2023/12/19 03:46:18;;;;;;;9.77;7.63;;;;;;;-1.78;100.00;100439.78;5100842;28;20194;-81
2023/12/19 03:48:45;;;;;;;9.70;8.23;;;;;;;-1.80;100.00;100444.31;5101701;28;20242;-81
2023/12/19 03:51:12;;;;;;;10.43;8.40;;;;;;;-1.83;100.00;100453.28;5108907;28;20184;-81
2023/12/19 03:53:39;;;;;;;10.53;8.30;;;;;;;-1.86;100.00;100444.78;5120412;28;20196;-81
2023/12/19 03:56:08;;;;;;;9.70;8.13;;;;;;;-1.91;100.00;100439.91;5121484;28;20257;-81
2023/12/19 03:58:38;;;;;;;9.90;8.00;;;;;;;-1.94;100.00;100431.44;5122637;28;20207;-81
2023/12/19 04:01:05;;;;;;;10.17;9.07;;;;;;;-1.97;100.00;100419.38;5121105;28;20188;-81
2023/12/19 04:03:32;;;;;;;10.53;9.03;;;;;;;-1.97;100.00;100426.44;5122930;28;20184;-81
2023/12/19 04:05:59;;;;;;;9.87;8.80;;;;;;;-1.97;100.00;100421.19;5122937;28;20187;-81
2023/12/19 04:08:26;;;;;;;11.93;9.43;;;;;;;-1.96;100.00;100415.78;5121125;28;20182;-81
2023/12/19 04:10:52;;;;;;;13.47;10.13;;;;;;;-1.96;100.00;100410.53;5120905;28;20195;-81
2023/12/19 04:13:19;;;;;;;15.47;13.43;;;;;;;-1.94;100.00;100408.63;5122412;28;20267;-81
2023/12/19 04:15:46;;;;;;;14.97;13.07;;;;;;;-1.92;100.00;100408.53;5121393;28;20176;-81
2023/12/19 04:18:14;;;;;;;16.50;13.30;;;;;;;-1.83;100.00;100392.88;5121493;28;20204;-81
2023/12/19 04:20:41;;;;;;;15.43;13.13;;;;;;;-1.79;100.00;100399.53;5103793;28;20207;-81
2023/12/19 04:23:09;;;;;;;13.53;11.50;;;;;;;-1.77;100.00;100394.97;5122033;28;20191;-81
2023/12/19 04:25:36;;;;;;;13.47;11.23;;;;;;;-1.70;100.00;100394.50;5110871;28;20210;-81
2023/12/19 04:28:03;;;;;;;14.63;11.63;;;;;;;-1.69;100.00;100411.94;5101453;28;20184;-81
2023/12/19 04:30:30;;;;;;;14.53;11.40;;;;;;;-1.62;100.00;100399.97;5101500;28;20233;-81
2023/12/19 04:32:57;;;;;;;14.63;12.03;;;;;;;-1.50;100.00;100380.59;5101124;28;20224;-81
2023/12/19 04:35:24;;;;;;;15.77;12.73;;;;;;;-1.49;100.00;100383.09;5100953;28;20191;-81
2023/12/19 04:37:51;;;;;;;13.47;11.63;;;;;;;-1.50;100.00;100375.34;5101094;28;20180;-81
2023/12/19 04:40:17;;;;;;;16.57;12.10;;;;;;;-1.47;100.00;100377.72;5101103;28;20396;-81
2023/12/19 04:42:44;;;;;;;16.13;11.70;;;;;;;-1.48;100.00;100379.50;5099510;28;20180;-81
2023/12/19 04:45:12;;;;;;;13.47;11.47;;;;;;;-1.48;100.00;100387.38;5082979;28;20192;-81
2023/12/19 04:47:39;;;;;;;14.37;10.63;;;;;;;-1.54;100.00;100387.88;5099226;28;20257;-81
2023/12/19 04:50:08;;;;;;;14.07;10.90;;;;;;;-1.61;100.00;100384.09;5099865;28;20244;-81
2023/12/19 04:52:35;;;;;;;12.30;10.03;;;;;;;-1.63;100.00;100382.56;5100363;28;20180;-81
2023/12/19 04:55:02;;;;;;;13.43;9.67;;;;;;;-1.64;100.00;100378.25;5085365;28;20192;-81
2023/12/19 04:57:29;;;;;;;11.53;10.00;;;;;;;-1.67;100.00;100376.69;5063886;28;20220;-81
2023/12/19 04:59:56;;;;;;;13.57;9.83;;;;;;;-1.73;100.00;100379.00;5081890;28;20204;-83
2023/12/19 05:02:23;;;;;;;11.10;9.90;;;;;;;-1.77;100.00;100373.97;5080834;28;20198;-81
2023/12/19 05:04:50;;;;;;;10.77;8.27;;;;;;;-1.73;100.00;100363.22;5080848;28;20207;-81
2023/12/19 05:07:17;;;;;;;12.13;9.30;;;;;;;-1.75;100.00;100381.72;5090189;28;20223;-81
2023/12/19 05:09:44;;;;;;;10.50;9.33;;;;;;;-1.74;100.00;100380.78;5102366;28;20199;-81
2023/12/19 05:12:10;;;;;;;9.77;8.57;;;;;;;-1.81;100.00;100379.59;5101698;28;20176;-81
2023/12/19 05:14:37;;;;;;;8.63;7.50;;;;;;;-1.80;100.00;100373.38;5101881;28;20211;-81
2023/12/19 05:17:04;;;;;;;8.93;7.47;;;;;;;-1.81;100.00;100371.72;5100298;28;20188;-81
2023/12/19 05:19:31;;;;;;;8.07;7.27;;;;;;;-1.81;100.00;100367.28;5102632;28;20204;-81
2023/12/19 05:22:09;;;;;;;8.53;6.83;;;;;;;-1.78;100.00;100368.84;5102304;28;20256;-81
2023/12/19 05:24:38;;;;;;;8.20;6.50;;;;;;;-1.74;100.00;100364.19;5106465;28;20180;-81
2023/12/19 05:27:05;;;;;;;6.47;5.60;;;;;;;-1.71;100.00;100356.88;5105807;28;20237;-81
2023/12/19 05:29:32;;;;;;;6.13;4.70;;;;;;;-1.64;100.00;100359.84;5105961;28;20188;-81
2023/12/19 05:31:59;;;;;;;4.87;4.30;;;;;;;-1.57;100.00;100350.50;5104757;28;20676;-81
2023/12/19 05:34:26;;;;;;;5.47;4.47;;;;;;;-1.51;100.00;100344.75;5104531;28;20237;-80
2023/12/19 05:36:53;;;;;;;4.60;3.60;;;;;;;-1.47;100.00;100328.63;5102827;28;20184;-81
2023/12/19 05:39:20;;;;;;;5.10;3.70;;;;;;;-1.37;100.00;100328.69;5103370;28;20204;-80
2023/12/19 05:41:47;;;;;;;4.23;3.47;;;;;;;-1.29;100.00;100321.00;5103972;28;20724;-81
2023/12/19 05:44:14;;;;;;;4.80;3.77;;;;;;;-1.25;100.00;100324.19;5103453;28;20194;-80
2023/12/19 05:46:40;;;;;;;4.40;3.10;;;;;;;-1.18;100.00;100318.31;5102977;28;20265;-81
2023/12/19 05:49:07;;;;;;;4.27;3.50;;;;;;;-1.16;100.00;100321.63;5103096;28;20234;-81
2023/12/19 05:51:39;;;;;;;3.30;3.00;;;;;;;-1.12;100.00;100330.94;5103003;28;20697;-81
2023/12/19 05:54:06;;;;;;;5.27;3.50;;;;;;;-1.07;100.00;100330.53;5102870;28;20232;-81
2023/12/19 05:56:33;;;;;;;5.20;3.40;;;;;;;-1.08;100.00;100326.28;5102548;28;20192;-81
2023/12/19 05:59:00;;;;;;;3.90;3.10;;;;;;;-1.08;100.00;100337.63;5101911;28;20208;-80
2023/12/19 06:01:27;;;;;;;3.83;2.90;;;;;;;-1.08;100.00;100347.31;5101001;28;20180;-81
2023/12/19 06:03:54;;;;;;;4.17;3.00;;;;;;;-1.13;100.00;100345.06;5084791;28;20206;-81
2023/12/19 06:06:21;;;;;;;3.57;3.23;;;;;;;-1.15;100.00;100354.03;5101947;28;20184;-81
2023/12/19 06:08:48;;;;;;;5.37;3.37;;;;;;;-1.20;100.00;100348.31;5101241;28;20180;-81
2023/12/19 06:11:25;;;;;;;4.83;3.40;;;;;;;-1.24;100.00;100341.66;5084457;28;20257;-81
2023/12/19 06:13:53;;;;;;;5.17;3.30;;;;;;;-1.33;100.00;100344.09;5084383;28;20284;-81
2023/12/19 06:16:19;;;;;;;3.90;2.83;;;;;;;-1.36;100.00;100341.72;5101287;28;20238;-81
2023/12/19 06:18:46;;;;;;;3.83;3.10;;;;;;;-1.40;100.00;100328.94;5101307;28;20209;-81
2023/12/19 06:21:13;;;;;;;3.47;3.00;;;;;;;-1.46;100.00;100342.59;5102725;28;20191;-81
2023/12/19 06:23:40;;;;;;;5.97;3.50;;;;;;;-1.55;100.00;100341.56;5085069;28;20238;-81
2023/12/19 06:26:07;;;;;;;3.37;3.00;;;;;;;-1.56;100.00;100345.13;5103139;28;20210;-81
2023/12/19 06:28:34;;;;;;;5.97;3.60;;;;;;;-1.67;100.00;100353.03;5085568;28;20640;-81
2023/12/19 06:31:00;;;;;;;4.30;3.40;;;;;;;-1.69;100.00;100344.47;5103802;28;20176;-81
2023/12/19 06:33:27;;;;;;;3.97;3.40;;;;;;;-1.70;100.00;100358.56;5100967;28;20230;-81
2023/12/19 06:35:55;;;;;;;4.40;3.37;;;;;;;-1.74;100.00;100361.56;5111170;28;20183;-82
2023/12/19 06:38:22;;;;;;;3.40;3.10;;;;;;;-1.80;100.00;100358.47;5109770;28;20196;-82
2023/12/19 06:40:51;;;;;;;3.73;3.10;;;;;;;-1.84;100.00;100364.09;5110569;28;20218;-81
2023/12/19 06:43:19;;;;;;;3.57;3.00;;;;;;;-1.85;100.00;100363.25;5096499;28;20184;-82
2023/12/19 06:45:47;;;;;;;3.40;3.10;;;;;;;-1.88;100.00;100363.50;5098301;28;20197;-82
2023/12/19 06:48:15;;;;;;;4.67;3.07;;;;;;;-1.90;100.00;100372.44;5110217;28;20248;-81
2023/12/19 06:50:41;;;;;;;5.17;3.47;;;;;;;-1.89;100.00;100387.25;5079366;28;20268;-82
2023/12/19 06:53:08;;;;;;;3.77;3.33;;;;;;;-1.97;100.00;100400.16;5096896;28;20212;-82
2023/12/19 06:55:35;;;;;;;5.47;4.07;;;;;;;-1.96;100.00;100393.97;5113481;28;20195;-82
2023/12/19 06:58:03;;;;;;;4.37;3.80;;;;;;;-1.94;100.00;100385.00;5112763;28;20191;-82
2023/12/19 07:00:30;;;;;;;4.30;3.73;;;;;;;-1.93;100.00;100373.53;5095200;28;20228;-81
2023/12/19 07:02:57;;;;;;;4.10;3.70;;;;;;;-1.90;100.00;100369.81;5095264;28;20190;-82
2023/12/19 07:05:24;;;;;;;5.03;4.33;;;;;;;-1.89;100.00;100377.59;5078818;28;20198;-82
2023/12/19 07:07:53;;;;;;;4.87;3.97;;;;;;;-1.93;100.00;100384.03;5094639;28;20192;-81
2023/12/19 07:10:20;;;;;;;7.13;5.83;;;;;;;-2.00;100.00;100376.75;5094099;28;20256;-82
2023/12/19 07:12:47;;;;;;;6.57;5.77;;;;;;;-2.01;100.00;100380.34;5112761;28;20188;-81
2023/12/19 07:15:14;;;;;;;7.60;5.80;;;;;;;-2.03;100.00;100388.34;5110222;28;20195;-81
2023/12/19 07:17:43;;;;;;;7.47;5.30;;;;;;;-2.02;100.00;100379.53;5112091;28;20184;-81
2023/12/19 07:20:12;;;;;;;6.80;5.60;;;;;;;-1.97;100.00;100401.00;5119829;28;20191;-83
2023/12/19 07:22:40;;;;;;;6.13;5.17;;;;;;;-1.91;100.00;100392.63;5102333;28;20256;-83
2023/12/19 07:25:09;;;;;;;6.10;5.30;;;;;;;-1.88;100.00;100392.41;5103217;28;20226;-83
2023/12/19 07:27:37;;;;;;;8.20;6.10;;;;;;;-1.81;100.00;100400.59;5119939;28;20191;-83
2023/12/19 07:30:12;;;;;;;9.97;7.03;;;;;;;-1.71;100.00;100392.81;5088064;28;20633;-83
2023/12/19 07:32:40;;;;;;;11.50;8.37;;;;;;;-1.62;100.00;100385.03;5101820;28;20203;-82
2023/12/19 07:35:09;;;;;;;13.70;7.37;;;;;;;-1.55;100.00;100359.94;5102817;28;20169;-83
2023/12/19 07:37:37;;;;;;;10.13;7.87;;;;;;;-1.44;100.00;100361.69;5119434;28;20185;-83
2023/12/19 07:40:10;;;;;;;11.97;9.30;;;;;;;-1.38;100.00;100350.69;5085990;28;20223;-83
2023/12/19 07:42:42;;;;;;;12.23;8.73;;;;;;;-1.22;100.00;100351.09;5119760;28;20180;-83
2023/12/19 07:45:13;;;;;;;13.13;9.33;;;;;;;-1.05;100.00;100345.25;5119313;28;20172;-82
2023/12/19 07:47:42;;;;;;;15.77;9.03;;;;;;;-0.92;100.00;100343.25;5102064;28;20244;-83
2023/12/19 07:50:12;;;;;;;10.23;7.90;;;;;;;-0.82;100.00;100331.97;5101195;28;20207;-82
2023/12/19 07:52:40;;;;;;;9.00;7.10;;;;;;;-0.65;100.00;100331.34;5100546;28;20196;-82
2023/12/19 07:55:11;;;;;;;11.17;8.50;;;;;;;-0.53;100.00;100323.25;5099695;28;20189;-83
2023/12/19 07:57:41;;;;;;;10.97;8.77;;;;;;;-0.40;100.00;100323.03;5097364;28;20190;-82
2023/12/19 08:00:12;;;;;;;14.30;10.80;;;;;;;-0.29;100.00;100322.09;5104757;28;20196;-81
2023/12/19 08:02:41;;;;;;;13.43;10.50;;;;;;;-0.14;100.00;100313.66;5104038;28;20187;-82
2023/12/19 08:05:10;;;;;;;14.00;11.17;;;;;;;0.01;100.00;100308.84;5104592;28;20192;-82
2023/12/19 08:07:37;;;;;;;17.33;12.33;;;;;;;0.15;100.00;100311.09;5104452;28;20194;-82
2023/12/19 08:10:05;;;;;;;15.20;12.53;;;;;;;0.27;100.00;100307.38;5104458;28;20188;-82
2023/12/19 08:12:32;;;;;;;16.07;12.53;;;;;;;0.38;100.00;100316.94;5102840;28;20237;-81
2023/12/19 08:15:00;;;;;;;16.40;12.50;;;;;;;0.48;100.00;100324.88;5104068;28;20188;-82
2023/12/19 08:17:27;;;;;;;17.53;13.47;;;;;;;0.58;100.00;100321.25;5103268;28;20279;-82
2023/12/19 08:19:53;;;;;;;17.27;14.00;;;;;;;0.65;100.00;100316.28;5102487;28;20648;-82
2023/12/19 08:22:21;;;;;;;14.77;12.33;;;;;;;0.75;100.00;100314.44;5102911;28;20211;-81
2023/12/19 08:24:49;;;;;;;15.73;13.40;;;;;;;0.89;100.00;100311.38;5103958;28;20184;-81
2023/12/19 08:27:16;;;;;;;15.33;12.43;;;;;;;0.97;100.00;100305.41;5085799;28;20188;-82
2023/12/19 08:29:44;;;;;;;15.20;12.00;;;;;;;1.05;100.00;100300.25;5085376;28;20263;-81
2023/12/19 08:32:11;;;;;;;13.90;10.40;;;;;;;1.17;100.00;100299.94;5103216;28;20193;-81
2023/12/19 08:34:40;;;;;;;12.23;9.97;;;;;;;1.26;100.00;100292.97;5103879;28;20188;-82
2023/12/19 08:37:08;;;;;;;9.77;8.20;;;;;;;1.39;100.00;100279.44;5103621;28;20184;-81
2023/12/19 08:39:35;;;;;;;9.90;7.73;;;;;;;1.55;100.00;100283.13;5104236;28;20204;-82
2023/12/19 08:42:03;;;;;;;8.23;7.03;;;;;;;1.66;100.00;100276.81;5094869;28;20173;-83
2023/12/19 08:44:32;;;;;;;7.77;6.33;;;;;;;1.76;100.00;100272.31;5110646;28;20259;-83
2023/12/19 08:47:01;;;;;;;8.13;6.70;;;;;;;1.87;100.00;100264.16;5093334;28;20253;-82
2023/12/19 08:49:28;;;;;;;7.80;6.60;;;;;;;1.98;100.00;100258.69;5093923;28;20253;-83
2023/12/19 08:52:02;;;;;;;8.63;6.60;;;;;;;2.09;100.00;100268.22;5078725;28;20192;-83
2023/12/19 08:54:31;;;;;;;6.97;6.23;;;;;;;2.18;100.00;100267.31;5112798;28;20251;-83
2023/12/19 08:57:04;;;;;;;8.77;6.30;;;;;;;2.32;100.00;100269.44;5095687;28;20218;-82
2023/12/19 08:59:37;;;;;;;7.13;6.17;;;;;;;2.43;100.00;100255.97;5111599;28;20207;-83
2023/12/19 09:02:13;;;;;;;8.00;6.20;;;;;;;2.53;100.00;100259.38;5080882;28;20220;-83
2023/12/19 09:09:29;;;;;;;7.60;6.43;;;;;;;2.74;100.00;100231.75;5109949;28;20266;-83
2023/12/19 09:12:03;;;;;;;6.90;6.20;;;;;;;2.86;100.00;100235.78;5094153;28;20267;-82
2023/12/19 09:14:40;;;;;;;6.73;6.03;;;;;;;2.94;100.00;100233.22;5092866;28;20628;-82
2023/12/19 09:17:09;;;;;;;7.60;6.57;;;;;;;3.02;100.00;100234.09;5092871;28;20202;-82
2023/12/19 09:19:40;;;;;;;8.97;5.83;;;;;;;3.16;100.00;100219.44;5108712;28;20227;-82
2023/12/19 09:22:14;;;;;;;7.67;6.17;;;;;;;3.27;100.00;100215.66;5107963;28;20256;-82
2023/12/19 09:24:45;;;;;;;10.10;6.37;;;;;;;3.35;100.00;100213.06;5074794;28;20201;-82
2023/12/19 09:27:12;;;;;;;6.93;6.23;;;;;;;3.41;100.00;100207.94;5107322;28;20198;-82
2023/12/19 09:29:41;;;;;;;8.03;7.23;;;;;;;3.50;100.00;100201.69;5106661;28;20192;-81
2023/12/19 09:32:18;;;;;;;8.73;7.50;;;;;;;3.59;100.00;100202.56;5107278;28;20194;-80
2023/12/19 09:34:51;;;;;;;8.33;7.10;;;;;;;3.68;100.00;100201.59;5107804;28;20287;-80
2023/12/19 09:37:23;;;;;;;8.00;7.30;;;;;;;3.76;100.00;100185.72;5107376;28;20184;-80
2023/12/19 09:40:06;;;;;;;8.80;7.90;;;;;;;3.83;100.00;100184.06;5106393;28;20200;-81
2023/12/19 09:42:45;;;;;;;9.33;8.10;;;;;;;3.91;100.00;100181.44;5105449;28;20204;-80
2023/12/19 09:45:20;;;;;;;9.03;8.13;;;;;;;3.98;100.00;100173.66;5105940;28;20211;-80
2023/12/19 09:48:39;;;;;;;10.30;8.60;;;;;;;4.09;100.00;100165.38;5044681;28;20248;-80
2023/12/19 09:51:15;;;;;;;10.07;9.07;;;;;;;4.18;100.00;100161.75;5011522;28;20198;-80
2023/12/19 09:53:43;;;;;;;9.93;8.93;;;;;;;4.26;100.00;100164.38;5010816;28;20198;-80
2023/12/19 09:56:18;;;;;;;9.97;8.97;;;;;;;4.38;100.00;100162.25;5026845;28;20194;-80
2023/12/19 09:58:56;;;;;;;9.83;8.83;;;;;;;4.48;100.00;100164.72;5010023;28;20229;-80
2023/12/19 10:04:47;;;;;;;9.77;8.77;;;;;;;4.72;100.00;100168.16;5042365;28;20198;-81
2023/12/19 10:07:23;;;;;;;10.33;8.30;;;;;;;4.79;100.00;100150.56;5086451;28;20200;-81
2023/12/19 10:09:54;;;;;;;8.73;7.87;;;;;;;4.90;100.00;100164.47;5104152;28;20200;-80
2023/12/19 10:12:34;;;;;;;9.07;8.17;;;;;;;5.10;100.00;100155.09;5105139;28;20176;-80
2023/12/19 10:15:27;;;;;;;9.27;7.80;;;;;;;5.26;100.00;100149.75;5092496;28;20267;-81
2023/12/19 10:18:11;;;;;;;8.30;7.40;;;;;;;5.54;100.00;100147.44;5071534;28;20241;-82
2023/12/19 10:21:13;;;;;;;8.83;7.57;;;;;;;5.70;100.00;100145.50;5104606;28;20227;-80
2023/12/19 10:23:45;;;;;;;8.60;7.60;;;;;;;5.75;100.00;100143.16;5088607;28;20191;-80
2023/12/19 10:26:28;;;;;;;8.30;7.50;;;;;;;5.89;100.00;100149.56;5104229;28;20256;-80
2023/12/19 10:29:00;;;;;;;8.63;7.53;;;;;;;5.90;100.00;100137.94;5088021;28;20268;-81
2023/12/19 10:31:28;;;;;;;9.00;7.90;;;;;;;5.97;100.00;100135.41;5068728;28;20288;-80
2023/12/19 10:33:58;;;;;;;9.67;7.87;;;;;;;6.03;100.00;100132.84;5086102;28;20216;-80
2023/12/19 10:36:32;;;;;;;9.17;8.27;;;;;;;6.11;100.00;100142.63;5084726;28;20265;-80
2023/12/19 10:39:05;;;;;;;10.53;8.83;;;;;;;6.18;100.00;100141.69;5101442;28;20184;-80
2023/12/19 10:41:38;;;;;;;10.07;9.00;;;;;;;6.21;100.00;100127.19;5100472;28;20168;-80
2023/12/19 10:44:07;;;;;;;11.93;10.63;;;;;;;6.22;100.00;100128.03;5082409;28;20202;-80
2023/12/19 10:46:34;;;;;;;14.87;13.27;;;;;;;6.20;100.00;100123.72;5082809;28;20192;-81
2023/12/19 10:49:04;;;;;;;17.33;15.53;;;;;;;6.22;100.00;100134.19;5099082;28;20224;-80
2023/12/19 10:51:34;;;;;;;16.20;14.60;;;;;;;6.17;100.00;100128.56;5098688;28;20192;-80
2023/12/19 10:54:18;;;;;;;17.53;15.63;;;;;;;6.09;100.00;100113.50;5101274;28;20196;-81
2023/12/19 10:57:15;;;;;;;17.63;15.93;;;;;;;5.86;100.00;100111.84;5101943;28;20234;-80
2023/12/19 11:00:00;;;;;;;18.37;16.53;;;;;;;5.70;100.00;100107.44;5081081;28;20673;-79
2023/12/19 11:02:48;;;;;;;18.77;16.53;;;;;;;5.54;100.00;100097.78;5108100;28;20189;-80
2023/12/19 11:05:47;;;;;;;18.87;17.07;;;;;;;5.48;100.00;100101.13;5101315;28;20197;-80
2023/12/19 11:08:17;;;;;;;19.60;17.60;;;;;;;5.28;100.00;100091.94;5100520;28;20184;-80
2023/12/19 11:10:56;;;;;;;19.87;17.93;;;;;;;5.38;100.00;100083.75;5081699;28;20234;-79
2023/12/19 11:13:27;;;;;;;20.17;18.03;;;;;;;5.37;100.00;100079.41;5091020;28;20260;-79
2023/12/19 11:16:20;;;;;;;20.73;18.70;;;;;;;5.37;100.00;100080.25;5099982;28;20196;-79
2023/12/19 11:19:05;;;;;;;20.40;18.50;;;;;;;5.43;100.00;100086.69;5100660;28;20196;-79
2023/12/19 11:21:46;;;;;;;20.37;18.47;;;;;;;5.33;100.00;100078.94;5080019;28;20258;-79
2023/12/19 11:24:27;;;;;;;20.87;18.87;;;;;;;5.32;100.00;100069.31;5092294;28;20195;-79
2023/12/19 11:27:16;;;;;;;20.27;18.27;;;;;;;5.35;100.00;100060.19;5078821;28;20249;-80
2023/12/19 11:30:09;;;;;;;18.03;16.33;;;;;;;5.32;100.00;100059.53;5108560;28;20268;-79